<?xml version="1.0" encoding="UTF-8" standalone="no" ?>
<gpx xmlns="http://www.topografix.com/GPX/1/1" xmlns:xsi="http://www.w3.org/2001/XMLSchema-instance" xsi:schemaLocation="http://www.topografix.com/GPX/1/1 http://www.topografix.com/GPX/1/1/gpx.xsd" version="1.1" creator="VisuGPX - https://www.visugpx.com">
  <metadata>
    <name>Rando Abbaye Port Royal, Tres Court</name>
  </metadata>
  <trk>
    <name><![CDATA[Maps3D 2022-08-26 01-28pm]]></name>
    <extensions>
      <line xmlns="http://www.topografix.com/GPX/gpx_style/0/2">
        <color>0000FF</color>
        <width>4</width>
          <extensions>
            <sens>1</sens>
          </extensions>
      </line>
    </extensions>
    <trkseg>
      <trkpt lat="48.74534" lon="2.03019">
        <ele>164.1</ele>
      </trkpt>
      <trkpt lat="48.74795" lon="2.03453">
        <ele>160.3</ele>
      </trkpt>
      <trkpt lat="48.74922" lon="2.03626">
        <ele>155.9</ele>
      </trkpt>
      <trkpt lat="48.74961" lon="2.03679">
        <ele>153.6</ele>
      </trkpt>
      <trkpt lat="48.74988" lon="2.03721">
        <ele>151.6</ele>
      </trkpt>
      <trkpt lat="48.75108" lon="2.03597">
        <ele>155</ele>
      </trkpt>
      <trkpt lat="48.75135" lon="2.0368">
        <ele>152.1</ele>
      </trkpt>
      <trkpt lat="48.75269" lon="2.03524">
        <ele>154.1</ele>
      </trkpt>
      <trkpt lat="48.75386" lon="2.03748">
        <ele>143.1</ele>
      </trkpt>
      <trkpt lat="48.75409" lon="2.0379">
        <ele>147.6</ele>
      </trkpt>
      <trkpt lat="48.75422" lon="2.03776">
        <ele>148.6</ele>
      </trkpt>
      <trkpt lat="48.75458" lon="2.03803">
        <ele>155.3</ele>
      </trkpt>
      <trkpt lat="48.75468" lon="2.03767">
        <ele>155</ele>
        <time>2022-08-26T09:05:22Z</time>
      </trkpt>
      <trkpt lat="48.75494" lon="2.03672">
        <ele>154.6</ele>
        <time>2022-08-26T09:05:38Z</time>
      </trkpt>
      <trkpt lat="48.7551" lon="2.03603">
        <ele>155.8</ele>
      </trkpt>
      <trkpt lat="48.75521" lon="2.03532">
        <ele>156</ele>
        <time>2022-08-26T09:05:53Z</time>
      </trkpt>
      <trkpt lat="48.75535" lon="2.03415">
        <ele>156.4</ele>
        <time>2022-08-26T09:06:09Z</time>
      </trkpt>
      <trkpt lat="48.75538" lon="2.03394">
        <ele>156.3</ele>
      </trkpt>
      <trkpt lat="48.75537" lon="2.0335">
        <ele>154.7</ele>
      </trkpt>
      <trkpt lat="48.75539" lon="2.03307">
        <ele>153.7</ele>
      </trkpt>
      <trkpt lat="48.75557" lon="2.03275">
        <ele>153.9</ele>
        <time>2022-08-26T09:06:24Z</time>
      </trkpt>
      <trkpt lat="48.75582" lon="2.03238">
        <ele>154.5</ele>
      </trkpt>
      <trkpt lat="48.75607" lon="2.03215">
        <ele>155.8</ele>
        <time>2022-08-26T09:06:40Z</time>
      </trkpt>
      <trkpt lat="48.7563" lon="2.03077">
        <ele>152.9</ele>
        <time>2022-08-26T09:06:56Z</time>
      </trkpt>
      <trkpt lat="48.75641" lon="2.03064">
        <ele>153.5</ele>
        <time>2022-08-26T09:07:11Z</time>
      </trkpt>
      <trkpt lat="48.75656" lon="2.03042">
        <ele>154.4</ele>
        <time>2022-08-26T09:07:28Z</time>
      </trkpt>
      <trkpt lat="48.75665" lon="2.02989">
        <ele>154.4</ele>
      </trkpt>
      <trkpt lat="48.75659" lon="2.02943">
        <ele>153.2</ele>
        <time>2022-08-26T09:07:43Z</time>
      </trkpt>
      <trkpt lat="48.75637" lon="2.0283">
        <ele>152.8</ele>
      </trkpt>
      <trkpt lat="48.75642" lon="2.02792">
        <ele>161.021805</ele>
        <time>2022-08-26T09:07:59Z</time>
      </trkpt>
      <trkpt lat="48.75646" lon="2.02768">
        <ele>153.5</ele>
      </trkpt>
      <trkpt lat="48.7568" lon="2.02687">
        <ele>155.5</ele>
      </trkpt>
      <trkpt lat="48.75686" lon="2.02679">
        <ele>155.7</ele>
        <time>2022-08-26T09:08:14Z</time>
      </trkpt>
      <trkpt lat="48.7574" lon="2.02618">
        <ele>163.763</ele>
        <time>2022-08-26T09:08:30Z</time>
      </trkpt>
      <trkpt lat="48.75799" lon="2.02525">
        <ele>158</ele>
        <time>2022-08-26T09:08:46Z</time>
      </trkpt>
      <trkpt lat="48.75863" lon="2.02422">
        <ele>171.587479</ele>
        <time>2022-08-26T09:09:01Z</time>
      </trkpt>
      <trkpt lat="48.75908" lon="2.02378">
        <ele>159</ele>
      </trkpt>
      <trkpt lat="48.75932" lon="2.02365">
        <ele>159.5</ele>
        <time>2022-08-26T09:09:17Z</time>
      </trkpt>
      <trkpt lat="48.75997" lon="2.02334">
        <ele>161.9</ele>
        <time>2022-08-26T09:09:33Z</time>
      </trkpt>
      <trkpt lat="48.76007" lon="2.02222">
        <ele>173.810638</ele>
        <time>2022-08-26T09:09:48Z</time>
      </trkpt>
      <trkpt lat="48.76009" lon="2.02172">
        <ele>161.3</ele>
      </trkpt>
      <trkpt lat="48.76026" lon="2.02092">
        <ele>161.9</ele>
        <time>2022-08-26T09:10:04Z</time>
      </trkpt>
      <trkpt lat="48.76027" lon="2.02048">
        <ele>161.9</ele>
      </trkpt>
      <trkpt lat="48.76013" lon="2.02009">
        <ele>161</ele>
        <time>2022-08-26T09:10:19Z</time>
      </trkpt>
      <trkpt lat="48.75963" lon="2.01865">
        <ele>158.7</ele>
        <time>2022-08-26T09:10:35Z</time>
      </trkpt>
      <trkpt lat="48.7593" lon="2.01775">
        <ele>159</ele>
        <time>2022-08-26T09:10:50Z</time>
      </trkpt>
      <trkpt lat="48.7583" lon="2.01708">
        <ele>165.61058</ele>
        <time>2022-08-26T09:11:06Z</time>
      </trkpt>
      <trkpt lat="48.75744" lon="2.01639">
        <ele>161</ele>
        <time>2022-08-26T09:11:22Z</time>
      </trkpt>
      <trkpt lat="48.75723" lon="2.01691">
        <ele>161</ele>
        <time>2022-08-26T09:11:37Z</time>
      </trkpt>
      <trkpt lat="48.7572" lon="2.01754">
        <ele>160</ele>
      </trkpt>
      <trkpt lat="48.75693" lon="2.01787">
        <ele>160</ele>
        <time>2022-08-26T09:11:52Z</time>
      </trkpt>
      <trkpt lat="48.75687" lon="2.01819">
        <ele>159.4</ele>
      </trkpt>
      <trkpt lat="48.75674" lon="2.01813">
        <ele>159.2</ele>
      </trkpt>
      <trkpt lat="48.75668" lon="2.0182">
        <ele>159</ele>
      </trkpt>
      <trkpt lat="48.75657" lon="2.01818">
        <ele>159</ele>
        <time>2022-08-26T09:12:07Z</time>
      </trkpt>
      <trkpt lat="48.75635" lon="2.01834">
        <ele>159</ele>
      </trkpt>
      <trkpt lat="48.75622" lon="2.01804">
        <ele>159</ele>
      </trkpt>
      <trkpt lat="48.75602" lon="2.01785">
        <ele>159</ele>
        <time>2022-08-26T09:12:23Z</time>
      </trkpt>
      <trkpt lat="48.75581" lon="2.0175">
        <ele>159</ele>
        <time>2022-08-26T09:12:38Z</time>
      </trkpt>
      <trkpt lat="48.75555" lon="2.01719">
        <ele>159</ele>
        <time>2022-08-26T09:12:54Z</time>
      </trkpt>
      <trkpt lat="48.75546" lon="2.01686">
        <ele>159.5</ele>
      </trkpt>
      <trkpt lat="48.75551" lon="2.01638">
        <ele>160</ele>
        <time>2022-08-26T09:13:09Z</time>
      </trkpt>
      <trkpt lat="48.75523" lon="2.01599">
        <ele>160.1</ele>
      </trkpt>
      <trkpt lat="48.75527" lon="2.01581">
        <ele>160.1</ele>
      </trkpt>
      <trkpt lat="48.75512" lon="2.01569">
        <ele>160.8</ele>
      </trkpt>
      <trkpt lat="48.75509" lon="2.01547">
        <ele>161</ele>
      </trkpt>
      <trkpt lat="48.75495" lon="2.01525">
        <ele>161</ele>
        <time>2022-08-26T09:13:25Z</time>
      </trkpt>
      <trkpt lat="48.75492" lon="2.01496">
        <ele>161.1</ele>
      </trkpt>
      <trkpt lat="48.75463" lon="2.01462">
        <ele>162</ele>
      </trkpt>
      <trkpt lat="48.75418" lon="2.01375">
        <ele>163</ele>
        <time>2022-08-26T09:13:40Z</time>
      </trkpt>
      <trkpt lat="48.75403" lon="2.01314">
        <ele>163</ele>
        <time>2022-08-26T09:13:56Z</time>
      </trkpt>
      <trkpt lat="48.75401" lon="2.01258">
        <ele>164</ele>
      </trkpt>
      <trkpt lat="48.75433" lon="2.01196">
        <ele>164</ele>
        <time>2022-08-26T09:14:12Z</time>
      </trkpt>
      <trkpt lat="48.75429" lon="2.01046">
        <ele>165</ele>
        <time>2022-08-26T09:14:27Z</time>
      </trkpt>
      <trkpt lat="48.75417" lon="2.00964">
        <ele>165</ele>
        <time>2022-08-26T09:14:43Z</time>
      </trkpt>
      <trkpt lat="48.75383" lon="2.00911">
        <ele>165.2</ele>
        <time>2022-08-26T09:14:59Z</time>
      </trkpt>
      <trkpt lat="48.75319" lon="2.00829">
        <ele>166</ele>
        <time>2022-08-26T09:15:14Z</time>
      </trkpt>
      <trkpt lat="48.75236" lon="2.00669">
        <ele>167</ele>
        <time>2022-08-26T09:15:29Z</time>
      </trkpt>
      <trkpt lat="48.75211" lon="2.00587">
        <ele>167</ele>
        <time>2022-08-26T09:15:44Z</time>
      </trkpt>
      <trkpt lat="48.75203" lon="2.00537">
        <ele>167</ele>
        <time>2022-08-26T09:16:45Z</time>
      </trkpt>
      <trkpt lat="48.75168" lon="2.00585">
        <ele>173.936646</ele>
        <time>2022-08-26T09:17:00Z</time>
      </trkpt>
      <trkpt lat="48.75147" lon="2.00605">
        <ele>167</ele>
      </trkpt>
      <trkpt lat="48.75124" lon="2.00631">
        <ele>167.4</ele>
        <time>2022-08-26T09:17:16Z</time>
      </trkpt>
      <trkpt lat="48.75086" lon="2.00676">
        <ele>167.9</ele>
        <time>2022-08-26T09:17:32Z</time>
      </trkpt>
      <trkpt lat="48.75048" lon="2.00722">
        <ele>168</ele>
        <time>2022-08-26T09:17:47Z</time>
      </trkpt>
      <trkpt lat="48.75033" lon="2.0074">
        <ele>168</ele>
      </trkpt>
      <trkpt lat="48.74994" lon="2.0069">
        <ele>168</ele>
      </trkpt>
      <trkpt lat="48.74976" lon="2.00694">
        <ele>175.14975</ele>
        <time>2022-08-26T09:18:03Z</time>
      </trkpt>
      <trkpt lat="48.7495" lon="2.00679">
        <ele>168</ele>
      </trkpt>
      <trkpt lat="48.74915" lon="2.00693">
        <ele>168</ele>
      </trkpt>
      <trkpt lat="48.74863" lon="2.00721">
        <ele>168</ele>
        <time>2022-08-26T09:18:18Z</time>
      </trkpt>
      <trkpt lat="48.74811" lon="2.00791">
        <ele>168</ele>
        <time>2022-08-26T09:18:34Z</time>
      </trkpt>
      <trkpt lat="48.74777" lon="2.00876">
        <ele>166.4</ele>
        <time>2022-08-26T09:18:50Z</time>
      </trkpt>
      <trkpt lat="48.74755" lon="2.00932">
        <ele>161.4</ele>
        <time>2022-08-26T09:19:05Z</time>
      </trkpt>
      <trkpt lat="48.74731" lon="2.00992">
        <ele>150.8</ele>
        <time>2022-08-26T09:19:21Z</time>
      </trkpt>
      <trkpt lat="48.74708" lon="2.01036">
        <ele>142</ele>
      </trkpt>
      <trkpt lat="48.7469" lon="2.0108">
        <ele>137.7</ele>
      </trkpt>
      <trkpt lat="48.7467" lon="2.01106">
        <ele>132.5</ele>
        <time>2022-08-26T09:19:36Z</time>
      </trkpt>
      <trkpt lat="48.74612" lon="2.01181">
        <ele>122.3</ele>
        <time>2022-08-26T09:19:52Z</time>
      </trkpt>
      <trkpt lat="48.74588" lon="2.01226">
        <ele>121.6</ele>
        <time>2022-08-26T09:20:08Z</time>
      </trkpt>
      <trkpt lat="48.74578" lon="2.01279">
        <ele>122.6</ele>
        <time>2022-08-26T09:20:24Z</time>
      </trkpt>
      <trkpt lat="48.74577" lon="2.01359">
        <ele>123</ele>
      </trkpt>
      <trkpt lat="48.74568" lon="2.0139">
        <ele>121.2</ele>
        <time>2022-08-26T09:20:39Z</time>
      </trkpt>
      <trkpt lat="48.74547" lon="2.0143">
        <ele>119.3</ele>
      </trkpt>
      <trkpt lat="48.74528" lon="2.01462">
        <ele>118.3</ele>
        <time>2022-08-26T09:20:54Z</time>
      </trkpt>
      <trkpt lat="48.74523" lon="2.01499">
        <ele>119.4</ele>
        <time>2022-08-26T09:21:10Z</time>
      </trkpt>
      <trkpt lat="48.74528" lon="2.01528">
        <ele>120.9</ele>
      </trkpt>
      <trkpt lat="48.74542" lon="2.01547">
        <ele>122.9</ele>
        <time>2022-08-26T09:21:25Z</time>
      </trkpt>
      <trkpt lat="48.74553" lon="2.01605">
        <ele>122.8</ele>
        <time>2022-08-26T09:28:18Z</time>
      </trkpt>
      <trkpt lat="48.74553" lon="2.01621">
        <ele>122.7</ele>
        <time>2022-08-26T09:28:33Z</time>
      </trkpt>
      <trkpt lat="48.74551" lon="2.01627">
        <ele>122.3</ele>
        <time>2022-08-26T09:28:48Z</time>
      </trkpt>
      <trkpt lat="48.74549" lon="2.01632">
        <ele>122.1</ele>
      </trkpt>
      <trkpt lat="48.74548" lon="2.01637">
        <ele>121.8</ele>
      </trkpt>
      <trkpt lat="48.74545" lon="2.01643">
        <ele>129.661606</ele>
        <time>2022-08-26T09:29:04Z</time>
      </trkpt>
      <trkpt lat="48.74543" lon="2.01676">
        <ele>120.6</ele>
      </trkpt>
      <trkpt lat="48.74545" lon="2.01711">
        <ele>121.1</ele>
        <time>2022-08-26T09:29:20Z</time>
      </trkpt>
      <trkpt lat="48.74545" lon="2.01734">
        <ele>122.3</ele>
        <time>2022-08-26T09:29:35Z</time>
      </trkpt>
      <trkpt lat="48.74542" lon="2.01746">
        <ele>123.1</ele>
      </trkpt>
      <trkpt lat="48.74524" lon="2.01758">
        <ele>123.8</ele>
        <time>2022-08-26T09:34:14Z</time>
      </trkpt>
      <trkpt lat="48.74483" lon="2.01783">
        <ele>125.1</ele>
        <time>2022-08-26T09:34:30Z</time>
      </trkpt>
      <trkpt lat="48.74444" lon="2.01813">
        <ele>127.6</ele>
        <time>2022-08-26T09:34:45Z</time>
      </trkpt>
      <trkpt lat="48.74371" lon="2.01842">
        <ele>122.8</ele>
        <time>2022-08-26T09:35:00Z</time>
      </trkpt>
      <trkpt lat="48.74366" lon="2.01844">
        <ele>122</ele>
      </trkpt>
      <trkpt lat="48.74339" lon="2.01875">
        <ele>120.8</ele>
      </trkpt>
      <trkpt lat="48.7429" lon="2.01903">
        <ele>115.4</ele>
      </trkpt>
      <trkpt lat="48.74277" lon="2.01907">
        <ele>113.8</ele>
        <time>2022-08-26T09:35:16Z</time>
      </trkpt>
      <trkpt lat="48.74268" lon="2.0191">
        <ele>113.3</ele>
      </trkpt>
      <trkpt lat="48.742" lon="2.01958">
        <ele>113.1</ele>
        <time>2022-08-26T09:35:32Z</time>
      </trkpt>
      <trkpt lat="48.74163" lon="2.02008">
        <ele>111.9</ele>
      </trkpt>
      <trkpt lat="48.74095" lon="2.02139">
        <ele>114.5</ele>
      </trkpt>
      <trkpt lat="48.74077" lon="2.02189">
        <ele>113.4</ele>
        <time>2022-08-26T09:35:47Z</time>
      </trkpt>
      <trkpt lat="48.74056" lon="2.02252">
        <ele>113.3</ele>
      </trkpt>
      <trkpt lat="48.74027" lon="2.02279">
        <ele>111</ele>
      </trkpt>
      <trkpt lat="48.73991" lon="2.02296">
        <ele>111.5</ele>
      </trkpt>
      <trkpt lat="48.73962" lon="2.0235">
        <ele>115.1</ele>
      </trkpt>
      <trkpt lat="48.73951" lon="2.02593">
        <ele>133.5</ele>
        <time>2022-08-26T09:36:02Z</time>
      </trkpt>
      <trkpt lat="48.74091" lon="2.02732">
        <ele>156.7</ele>
      </trkpt>
      <trkpt lat="48.74222" lon="2.0291">
        <ele>164</ele>
      </trkpt>
      <trkpt lat="48.74394" lon="2.02736">
        <ele>165.2</ele>
      </trkpt>
      <trkpt lat="48.74514" lon="2.0289">
        <ele>165</ele>
      </trkpt>
      <trkpt lat="48.74494" lon="2.02947">
        <ele>165</ele>
      </trkpt>
      <trkpt lat="48.74527" lon="2.03013">
        <ele>164</ele>
      </trkpt>
    </trkseg>
  </trk>
</gpx>